createdAt,value
2022-11-24T00:00:23.441Z,98.59
2022-11-24T00:01:23.419Z,98.49
2022-11-24T00:02:23.545Z,98.49
2022-11-24T00:03:23.546Z,98.38
2022-11-24T00:04:23.381Z,98.18
2022-11-24T00:05:23.363Z,98.13
2022-11-24T00:06:23.361Z,98.07
2022-11-24T00:07:23.347Z,98.03
2022-11-24T00:08:23.331Z,97.97
2022-11-24T00:09:23.321Z,97.82
2022-11-24T00:10:23.301Z,97.82
2022-11-24T00:11:23.281Z,97.72
2022-11-24T00:12:23.273Z,97.62
2022-11-24T00:13:23.259Z,97.52
2022-11-24T00:14:23.265Z,97.52
2022-11-24T00:15:23.245Z,97.41
2022-11-24T00:16:23.277Z,97.52
2022-11-24T00:17:23.202Z,97.41
2022-11-24T00:18:23.194Z,97.41
2022-11-24T00:19:23.192Z,97.31
2022-11-24T00:20:23.163Z,97.31
2022-11-24T00:21:23.159Z,97.20
2022-11-24T00:22:23.141Z,97.10
2022-11-24T00:23:23.122Z,97.10
2022-11-24T00:24:23.130Z,97.00
2022-11-24T00:25:23.092Z,97.00
2022-11-24T00:26:23.083Z,97.00
2022-11-24T00:27:23.072Z,96.90
2022-11-24T00:28:23.059Z,96.90
2022-11-24T00:29:23.062Z,96.80
2022-11-24T00:30:23.032Z,96.69
2022-11-24T00:31:23.112Z,96.69
2022-11-24T00:32:23.011Z,96.59
2022-11-24T00:33:22.985Z,96.48
2022-11-24T00:34:22.993Z,96.48
2022-11-24T00:35:22.961Z,96.39
2022-11-24T00:36:22.943Z,96.39
2022-11-24T00:37:22.934Z,96.28
2022-11-24T00:38:22.925Z,96.28
2022-11-24T00:39:22.925Z,96.18
2022-11-24T00:40:22.893Z,96.18
2022-11-24T00:41:22.874Z,96.08
2022-11-24T00:42:22.872Z,96.08
2022-11-24T00:43:22.853Z,96.08
2022-11-24T00:44:22.856Z,95.97
2022-11-24T00:45:22.825Z,96.08
2022-11-24T00:46:22.913Z,96.08
2022-11-24T00:47:22.883Z,96.08
2022-11-24T00:48:22.786Z,96.08
2022-11-24T00:49:22.793Z,96.18
2022-11-24T00:50:22.755Z,96.18
2022-11-24T00:51:22.744Z,96.18
2022-11-24T00:52:22.747Z,96.18
2022-11-24T00:53:22.716Z,96.28
2022-11-24T00:54:22.725Z,96.28
2022-11-24T00:55:22.686Z,96.18
2022-11-24T00:56:22.687Z,96.18
2022-11-24T00:57:22.667Z,96.18
2022-11-24T00:58:22.656Z,96.28
2022-11-24T00:59:22.655Z,96.18
2022-11-24T01:00:22.625Z,96.18
2022-11-24T01:01:22.641Z,96.18
2022-11-24T01:02:22.648Z,96.18
2022-11-24T01:03:22.586Z,96.08
2022-11-24T01:04:22.585Z,95.97
2022-11-24T01:05:22.554Z,95.97
2022-11-24T01:06:22.547Z,95.97
2022-11-24T01:07:22.597Z,95.97
2022-11-24T01:08:22.516Z,95.87
2022-11-24T01:09:22.516Z,95.87
2022-11-24T01:10:22.487Z,95.67
2022-11-24T01:11:22.474Z,95.67
2022-11-24T01:12:22.463Z,95.77
2022-11-24T01:13:22.448Z,95.56
2022-11-24T01:14:22.447Z,95.46
2022-11-24T01:15:22.417Z,95.31
2022-11-24T01:16:22.440Z,95.31
2022-11-24T01:17:22.389Z,95.31
2022-11-24T01:18:22.387Z,95.31
2022-11-24T01:19:22.379Z,95.31
2022-11-24T01:20:22.357Z,95.31
2022-11-24T01:21:22.337Z,95.21
2022-11-24T01:22:22.327Z,95.31
2022-11-24T01:23:22.309Z,95.10
2022-11-24T01:24:22.323Z,95.01
2022-11-24T01:25:22.279Z,94.90
2022-11-24T01:26:22.278Z,94.80
2022-11-24T01:27:22.260Z,94.59
2022-11-24T01:28:22.249Z,94.65
2022-11-24T01:29:22.250Z,94.55
2022-11-24T01:30:22.218Z,94.45
2022-11-24T01:31:22.230Z,94.34
2022-11-24T01:32:22.190Z,94.45
2022-11-24T01:33:22.168Z,94.34
2022-11-24T01:34:22.186Z,94.24
2022-11-24T01:35:22.149Z,94.04
2022-11-24T01:36:22.144Z,93.93
2022-11-24T01:37:22.121Z,93.73
2022-11-24T01:38:22.109Z,93.93
2022-11-24T01:39:22.109Z,93.83
2022-11-24T01:40:22.081Z,93.63
2022-11-24T01:41:22.067Z,93.52
2022-11-24T01:42:22.059Z,93.52
2022-11-24T01:43:22.040Z,93.52
2022-11-24T01:44:22.048Z,93.63
2022-11-24T01:45:22.011Z,93.52
2022-11-24T01:46:22.082Z,93.52
2022-11-24T01:47:22.022Z,93.42
2022-11-24T01:48:25.952Z,93.52
2022-11-24T01:49:22.979Z,93.42
2022-11-24T01:50:21.953Z,93.52
2022-11-24T01:51:21.932Z,93.63
2022-11-24T01:52:21.922Z,93.42
2022-11-24T01:53:21.900Z,93.32
2022-11-24T01:54:21.911Z,93.21
2022-11-24T01:55:21.899Z,93.12
2022-11-24T01:56:21.870Z,93.21
2022-11-24T01:57:21.851Z,93.12
2022-11-24T01:58:21.842Z,93.17
2022-11-24T01:59:21.841Z,93.42
2022-11-24T02:00:21.821Z,93.21
2022-11-24T02:01:21.895Z,93.12
2022-11-24T02:02:21.852Z,93.12
2022-11-24T02:03:21.768Z,93.01
2022-11-24T02:04:21.772Z,92.91
2022-11-24T02:05:21.742Z,92.91
2022-11-24T02:06:21.732Z,93.01
2022-11-24T02:07:21.745Z,93.12
2022-11-24T02:08:21.703Z,92.80
2022-11-24T02:09:21.706Z,92.80
2022-11-24T02:10:21.681Z,92.60
2022-11-24T02:11:21.660Z,92.60
2022-11-24T02:12:21.654Z,92.50
2022-11-24T02:13:21.631Z,92.25
2022-11-24T02:14:21.652Z,92.14
2022-11-24T02:15:21.604Z,91.94
2022-11-24T02:16:21.604Z,91.84
2022-11-24T02:17:21.575Z,91.84
2022-11-24T02:18:21.569Z,91.84
2022-11-24T02:19:21.573Z,91.94
2022-11-24T02:20:21.542Z,91.74
2022-11-24T02:21:21.523Z,91.84
2022-11-24T02:22:21.513Z,91.74
2022-11-24T02:23:21.493Z,91.63
2022-11-24T02:24:21.505Z,91.53
2022-11-24T02:25:21.473Z,91.33
2022-11-24T02:26:21.455Z,91.42
2022-11-24T02:27:21.444Z,91.53
2022-11-24T02:28:21.424Z,91.59
2022-11-24T02:29:21.436Z,91.53
2022-11-24T02:30:21.402Z,91.33
2022-11-24T02:31:21.494Z,91.18
2022-11-24T02:32:21.373Z,91.28
2022-11-24T02:33:21.365Z,91.28
2022-11-24T02:34:21.375Z,91.18
2022-11-24T02:35:21.346Z,91.22
2022-11-24T02:36:21.322Z,91.33
2022-11-24T02:37:21.315Z,91.28
2022-11-24T02:38:21.297Z,91.28
2022-11-24T02:39:21.322Z,91.33
2022-11-24T02:40:21.265Z,91.12
2022-11-24T02:41:21.255Z,91.08
2022-11-24T02:42:21.235Z,91.28
2022-11-24T02:43:21.226Z,91.18
2022-11-24T02:44:21.226Z,90.97
2022-11-24T02:45:21.203Z,91.02
2022-11-24T02:46:21.247Z,91.18
2022-11-24T02:47:21.174Z,91.08
2022-11-24T02:48:21.156Z,90.97
2022-11-24T02:49:21.165Z,91.08
2022-11-24T02:50:21.132Z,91.08
2022-11-24T02:51:21.140Z,91.49
2022-11-24T02:52:21.107Z,91.28
2022-11-24T02:53:21.108Z,91.08
2022-11-24T02:54:21.093Z,90.97
2022-11-24T02:55:21.077Z,91.08
2022-11-24T02:56:21.059Z,91.08
2022-11-24T02:57:21.038Z,90.97
2022-11-24T02:58:21.028Z,90.87
2022-11-24T02:59:21.038Z,91.08
2022-11-24T03:00:20.991Z,91.18
2022-11-24T03:01:21.022Z,91.28
2022-11-24T03:02:21.009Z,91.28
2022-11-24T03:03:20.957Z,91.08
2022-11-24T03:04:20.957Z,91.18
2022-11-24T03:05:20.930Z,91.28
2022-11-24T03:06:20.907Z,90.97
2022-11-24T03:07:20.946Z,91.28
2022-11-24T03:08:20.890Z,91.18
2022-11-24T03:09:20.896Z,91.28
2022-11-24T03:10:29.599Z,91.28
2022-11-24T03:11:21.609Z,91.18
2022-11-24T03:12:20.838Z,91.18
2022-11-24T03:13:20.818Z,91.18
2022-11-24T03:14:20.828Z,91.28
2022-11-24T03:15:20.808Z,91.18
2022-11-24T03:16:20.801Z,91.18
2022-11-24T03:17:20.771Z,91.38
2022-11-24T03:18:20.759Z,91.38
2022-11-24T03:19:20.759Z,91.28
2022-11-24T03:20:20.730Z,91.28
2022-11-24T03:21:20.710Z,91.38
2022-11-24T03:22:20.726Z,91.18
2022-11-24T03:23:20.722Z,91.18
2022-11-24T03:24:20.738Z,91.18
2022-11-24T03:25:20.681Z,91.18
2022-11-24T03:26:20.652Z,91.18
2022-11-24T03:27:20.652Z,91.08
2022-11-24T03:28:20.639Z,90.97
2022-11-24T03:29:20.627Z,90.97
2022-11-24T03:30:20.610Z,90.87
2022-11-24T03:31:20.661Z,90.97
2022-11-24T03:32:20.570Z,91.18
2022-11-24T03:33:20.560Z,91.28
2022-11-24T03:34:20.554Z,91.08
2022-11-24T03:35:20.540Z,90.97
2022-11-24T03:36:20.516Z,90.97
2022-11-24T03:37:20.501Z,91.18
2022-11-24T03:38:20.494Z,91.08
2022-11-24T03:39:20.502Z,91.08
2022-11-24T03:40:20.467Z,91.18
2022-11-24T03:41:20.475Z,91.18
2022-11-24T03:42:20.441Z,91.08
2022-11-24T03:43:20.426Z,90.97
2022-11-24T03:44:20.438Z,90.87
2022-11-24T03:45:45.017Z,91.08
2022-11-24T03:46:21.400Z,91.08
2022-11-24T03:47:20.384Z,91.08
2022-11-24T03:48:20.359Z,91.22
2022-11-24T03:49:20.366Z,91.28
2022-11-24T03:50:20.323Z,91.38
2022-11-24T03:51:20.311Z,91.38
2022-11-24T03:52:20.293Z,91.42
2022-11-24T03:53:20.322Z,91.42
2022-11-24T03:54:20.318Z,91.33
2022-11-24T03:55:20.256Z,91.28
2022-11-24T03:56:20.251Z,91.22
2022-11-24T03:57:20.226Z,91.22
2022-11-24T03:58:20.244Z,91.18
2022-11-24T03:59:20.234Z,91.33
2022-11-24T04:00:20.184Z,91.63
2022-11-24T04:01:20.232Z,91.42
2022-11-24T04:02:20.192Z,91.12
2022-11-24T04:03:20.156Z,91.22
2022-11-24T04:04:20.173Z,91.22
2022-11-24T04:05:20.132Z,91.22
2022-11-24T04:06:20.102Z,91.12
2022-11-24T04:07:20.189Z,91.18
2022-11-24T04:08:20.091Z,91.08
2022-11-24T04:09:20.141Z,90.87
2022-11-24T04:10:20.047Z,90.91
2022-11-24T04:11:20.055Z,90.87
2022-11-24T04:12:20.044Z,90.97
2022-11-24T04:13:20.029Z,90.91
2022-11-24T04:14:20.028Z,91.08
2022-11-24T04:15:20.007Z,91.02
2022-11-24T04:16:20.038Z,91.12
2022-11-24T04:17:19.957Z,91.02
2022-11-24T04:18:19.943Z,91.02
2022-11-24T04:19:19.961Z,91.12
2022-11-24T04:20:19.934Z,91.02
2022-11-24T04:21:19.897Z,91.12
2022-11-24T04:22:19.884Z,91.22
2022-11-24T04:23:19.904Z,91.22
2022-11-24T04:24:19.867Z,91.22
2022-11-24T04:25:19.869Z,91.53
2022-11-24T04:26:19.851Z,91.33
2022-11-24T04:27:19.844Z,91.42
2022-11-24T04:28:19.834Z,91.42
2022-11-24T04:29:19.797Z,91.53
2022-11-24T04:30:19.799Z,91.74
2022-11-24T04:31:19.815Z,92.04
2022-11-24T04:32:19.768Z,91.94
2022-11-24T04:33:19.738Z,92.04
2022-11-24T04:34:19.730Z,91.94
2022-11-24T04:35:19.735Z,92.04
2022-11-24T04:36:19.697Z,92.25
2022-11-24T04:37:19.690Z,92.35
2022-11-24T04:39:19.375Z,92.35
2022-11-24T04:39:25.474Z,92.25
2022-11-24T04:40:20.684Z,92.14
2022-11-24T04:41:19.630Z,92.14
2022-11-24T04:42:19.658Z,92.14
2022-11-24T04:43:19.600Z,92.14
2022-11-24T04:44:19.628Z,92.14
2022-11-24T04:45:19.579Z,92.14
2022-11-24T04:46:19.588Z,92.14
2022-11-24T04:47:19.591Z,92.14
2022-11-24T04:48:19.571Z,92.25
2022-11-24T04:49:19.540Z,92.25
2022-11-24T04:50:19.522Z,92.14
2022-11-24T04:51:19.514Z,92.14
2022-11-24T04:52:19.497Z,92.04
2022-11-24T04:53:19.472Z,92.14
2022-11-24T04:54:19.509Z,92.04
2022-11-24T04:55:19.451Z,92.14
2022-11-24T04:56:19.430Z,92.14
2022-11-24T04:57:19.450Z,92.25
2022-11-24T04:58:19.392Z,92.14
2022-11-24T04:59:19.430Z,92.14
2022-11-24T05:00:19.390Z,92.14
2022-11-24T05:01:19.444Z,92.14
2022-11-24T05:02:19.376Z,91.84
2022-11-24T05:03:19.335Z,91.84
2022-11-24T05:04:19.344Z,91.33
2022-11-24T05:05:19.340Z,91.18
2022-11-24T05:06:19.295Z,91.08
2022-11-24T05:07:19.598Z,91.08
2022-11-24T05:08:19.262Z,90.87
2022-11-24T05:09:19.304Z,90.77
2022-11-24T05:10:19.234Z,90.77
2022-11-24T05:11:19.237Z,90.67
2022-11-24T05:12:19.227Z,90.77
2022-11-24T05:13:19.199Z,90.67
2022-11-24T05:14:19.241Z,90.67
2022-11-24T05:15:19.173Z,90.56
2022-11-24T05:16:19.168Z,90.56
2022-11-24T05:17:19.154Z,90.56
2022-11-24T05:18:19.132Z,90.67
2022-11-24T05:19:19.124Z,90.36
2022-11-24T05:20:19.095Z,90.36
2022-11-24T05:21:19.096Z,90.36
2022-11-24T05:22:19.076Z,90.36
2022-11-24T05:23:19.068Z,90.36
2022-11-24T05:24:19.065Z,90.46
2022-11-24T05:25:19.034Z,90.46
2022-11-24T05:26:19.025Z,90.46
2022-11-24T05:27:19.016Z,90.46
2022-11-24T05:28:18.988Z,90.46
2022-11-24T05:29:18.991Z,90.46
2022-11-24T05:30:18.985Z,90.46
2022-11-24T05:31:19.022Z,90.56
2022-11-24T05:32:18.950Z,90.05
2022-11-24T05:33:19.003Z,89.95
2022-11-24T05:34:18.937Z,89.81
2022-11-24T05:35:18.928Z,89.81
2022-11-24T05:36:18.910Z,89.75
2022-11-24T05:37:18.886Z,89.60
2022-11-24T05:38:18.867Z,89.70
2022-11-24T05:39:18.859Z,89.84
2022-11-24T05:40:18.861Z,89.95
2022-11-24T05:41:18.829Z,89.95
2022-11-24T05:42:18.808Z,90.05
2022-11-24T05:43:18.796Z,90.16
2022-11-24T05:44:18.780Z,90.05
2022-11-24T05:45:18.798Z,89.95
2022-11-24T05:46:18.782Z,89.95
2022-11-24T05:47:18.748Z,89.95
2022-11-24T05:48:18.737Z,89.95
2022-11-24T05:49:18.727Z,89.84
2022-11-24T05:50:18.717Z,89.84
2022-11-24T05:51:18.716Z,89.84
2022-11-24T05:52:18.677Z,89.95
2022-11-24T05:53:18.674Z,89.95
2022-11-24T05:54:18.651Z,90.05
2022-11-24T05:55:18.679Z,89.95
2022-11-24T05:56:18.620Z,89.95
2022-11-24T05:57:18.613Z,89.95
2022-11-24T05:58:18.605Z,90.05
2022-11-24T05:59:18.580Z,89.95
2022-11-24T06:00:18.610Z,89.95
2022-11-24T06:01:18.613Z,90.05
2022-11-24T06:02:18.591Z,90.05
2022-11-24T06:03:18.662Z,89.84
2022-11-24T06:04:18.549Z,89.64
2022-11-24T06:05:18.529Z,89.64
2022-11-24T06:06:18.501Z,89.64
2022-11-24T06:07:18.557Z,89.54
2022-11-24T06:08:18.460Z,89.33
2022-11-24T06:09:18.473Z,89.13
2022-11-24T06:10:18.505Z,89.03
2022-11-24T06:11:18.424Z,89.13
2022-11-24T06:12:18.401Z,89.13
2022-11-24T06:13:18.484Z,89.13
2022-11-24T06:14:18.382Z,89.03
2022-11-24T06:15:18.384Z,88.92
2022-11-24T06:16:18.413Z,88.92
2022-11-24T06:17:18.360Z,89.03
2022-11-24T06:18:18.322Z,89.03
2022-11-24T06:19:18.311Z,89.03
2022-11-24T06:20:18.313Z,89.03
2022-11-24T06:21:18.283Z,88.92
2022-11-24T06:22:18.274Z,89.03
2022-11-24T06:23:18.273Z,89.03
2022-11-24T06:24:18.273Z,89.03
2022-11-24T06:25:18.260Z,88.92
2022-11-24T06:26:18.213Z,89.03
2022-11-24T06:27:18.206Z,89.03
2022-11-24T06:28:18.190Z,88.72
2022-11-24T06:29:18.182Z,88.41
2022-11-24T06:30:18.183Z,88.21
2022-11-24T06:31:18.215Z,88.10
2022-11-24T06:32:18.146Z,88.10
2022-11-24T06:33:18.123Z,87.90
2022-11-24T06:34:18.147Z,87.90
2022-11-24T06:35:18.116Z,87.70
2022-11-24T06:36:18.107Z,87.70
2022-11-24T06:37:18.089Z,87.79
2022-11-24T06:38:22.982Z,87.49
2022-11-24T06:39:19.043Z,87.49
2022-11-24T06:40:18.067Z,87.49
2022-11-24T06:41:18.017Z,87.38
2022-11-24T06:42:18.011Z,87.38
2022-11-24T06:43:17.985Z,87.18
2022-11-24T06:44:17.987Z,87.28
2022-11-24T06:45:17.987Z,87.28
2022-11-24T06:46:17.999Z,87.28
2022-11-24T06:47:17.935Z,87.28
2022-11-24T06:48:17.933Z,87.28
2022-11-24T06:49:17.905Z,87.28
2022-11-24T06:50:17.925Z,87.18
2022-11-24T06:51:17.876Z,86.36
2022-11-24T06:52:17.898Z,86.05
2022-11-24T06:53:17.875Z,85.44
2022-11-24T06:54:17.846Z,85.44
2022-11-24T06:55:17.836Z,85.44
2022-11-24T06:56:17.820Z,85.54
2022-11-24T06:57:17.817Z,85.64
2022-11-24T06:58:17.807Z,85.64
2022-11-24T06:59:17.788Z,85.74
2022-11-24T07:00:17.797Z,85.99
2022-11-24T07:01:17.825Z,86.30
2022-11-24T07:02:17.772Z,86.40
2022-11-24T07:03:17.788Z,86.50
2022-11-24T07:04:17.718Z,86.30
2022-11-24T07:05:17.728Z,86.19
2022-11-24T07:06:17.720Z,86.19
2022-11-24T07:07:17.709Z,86.40
2022-11-24T07:08:18.197Z,86.44
2022-11-24T07:09:17.651Z,86.54
2022-11-24T07:10:17.669Z,86.24
2022-11-24T07:11:17.618Z,86.33
2022-11-24T07:12:17.630Z,86.13
2022-11-24T07:13:17.609Z,86.03
2022-11-24T07:14:17.579Z,85.82
2022-11-24T07:15:17.572Z,85.93
2022-11-24T07:16:17.651Z,85.93
2022-11-24T07:17:17.551Z,86.03
2022-11-24T07:18:17.530Z,85.82
2022-11-24T07:19:23.149Z,85.78
2022-11-24T07:20:18.511Z,85.62
2022-11-24T07:21:17.501Z,85.38
2022-11-24T07:22:17.468Z,85.41
2022-11-24T07:23:17.451Z,85.58
2022-11-24T07:24:17.469Z,85.38
2022-11-24T07:25:17.426Z,85.27
2022-11-24T07:26:17.440Z,85.38
2022-11-24T07:27:17.426Z,85.62
2022-11-24T07:28:17.403Z,85.52
2022-11-24T07:29:17.389Z,85.41
2022-11-24T07:30:17.369Z,85.41
2022-11-24T07:31:17.431Z,85.41
2022-11-24T07:32:17.416Z,85.72
2022-11-24T07:33:17.338Z,85.93
2022-11-24T07:34:17.302Z,85.78
2022-11-24T07:35:17.291Z,85.78
2022-11-24T07:36:17.303Z,85.89
2022-11-24T07:37:17.272Z,85.62
2022-11-24T07:38:17.283Z,85.72
2022-11-24T07:39:17.241Z,85.93
2022-11-24T07:40:17.243Z,85.82
2022-11-24T07:41:17.231Z,85.52
2022-11-24T07:42:17.202Z,85.41
2022-11-24T07:43:20.124Z,85.52
2022-11-24T07:44:17.197Z,85.82
2022-11-24T07:45:17.165Z,85.93
2022-11-24T07:46:17.292Z,86.44
2022-11-24T07:47:17.152Z,85.82
2022-11-24T07:48:17.123Z,85.72
2022-11-24T07:49:17.113Z,85.82
2022-11-24T07:50:17.112Z,85.72
2022-11-24T07:51:17.101Z,85.72
2022-11-24T07:52:17.083Z,85.72
2022-11-24T07:53:17.044Z,85.62
2022-11-24T07:54:17.053Z,85.72
2022-11-24T07:55:17.056Z,85.72
2022-11-24T07:56:17.034Z,85.72
2022-11-24T07:57:17.003Z,85.72
2022-11-24T07:58:16.993Z,85.72
2022-11-24T07:59:16.973Z,85.72
2022-11-24T08:00:16.967Z,85.78
2022-11-24T08:01:17.058Z,85.93
2022-11-24T08:02:16.936Z,85.89
2022-11-24T08:03:16.944Z,85.99
2022-11-24T08:04:16.924Z,86.09
2022-11-24T08:05:16.916Z,85.99
2022-11-24T08:06:27.187Z,85.99
2022-11-24T08:07:17.927Z,86.19
2022-11-24T08:08:16.860Z,86.19
2022-11-24T08:09:16.836Z,86.09
2022-11-24T08:10:16.834Z,86.09
2022-11-24T08:11:16.864Z,85.99
2022-11-24T08:12:16.804Z,86.09
2022-11-24T08:13:16.774Z,86.19
2022-11-24T08:14:16.795Z,85.99
2022-11-24T08:15:16.774Z,86.09
2022-11-24T08:16:16.808Z,86.19
2022-11-24T08:17:16.726Z,86.40
2022-11-24T08:18:16.727Z,86.40
2022-11-24T08:19:16.713Z,86.40
2022-11-24T08:20:16.719Z,86.40
2022-11-24T08:21:16.695Z,86.40
2022-11-24T08:22:16.664Z,86.50
2022-11-24T08:23:16.650Z,86.57
2022-11-24T08:24:16.640Z,86.57
2022-11-24T08:25:16.622Z,86.46
2022-11-24T08:26:16.626Z,86.57
2022-11-24T08:27:16.591Z,86.46
2022-11-24T08:28:16.576Z,86.36
2022-11-24T08:29:16.587Z,86.57
2022-11-24T08:30:16.557Z,86.57
2022-11-24T08:31:16.587Z,86.57
2022-11-24T08:32:21.910Z,86.57
2022-11-24T08:33:17.653Z,86.57
2022-11-24T08:34:16.508Z,86.57
2022-11-24T08:35:16.504Z,86.57
2022-11-24T08:36:16.470Z,86.66
2022-11-24T08:37:16.479Z,86.66
2022-11-24T08:38:16.459Z,86.77
2022-11-24T08:39:16.439Z,86.98
2022-11-24T08:40:16.428Z,86.87
2022-11-24T08:41:16.440Z,86.98
2022-11-24T08:42:16.404Z,87.28
2022-11-24T08:43:16.385Z,87.24
2022-11-24T08:44:16.366Z,87.24
2022-11-24T08:45:20.797Z,87.04
2022-11-24T08:46:17.424Z,87.14
2022-11-24T08:47:16.340Z,86.93
2022-11-24T08:48:16.329Z,86.73
2022-11-24T08:49:16.298Z,86.93
2022-11-24T08:50:16.292Z,87.04
2022-11-24T08:51:16.293Z,86.83
2022-11-24T08:52:16.261Z,86.83
2022-11-24T08:53:16.261Z,86.93
2022-11-24T08:54:16.279Z,87.08
2022-11-24T08:55:16.234Z,87.28
2022-11-24T08:56:16.229Z,87.38
2022-11-24T08:57:21.661Z,87.45
2022-11-24T08:58:17.203Z,87.24
2022-11-24T08:59:16.208Z,86.93
2022-11-24T09:00:16.161Z,86.98
2022-11-24T09:01:16.223Z,87.04
2022-11-24T09:02:16.152Z,87.14
2022-11-24T09:03:16.112Z,86.83
2022-11-24T09:04:16.167Z,86.83
2022-11-24T09:05:43.603Z,86.83
2022-11-24T09:06:17.090Z,86.73
2022-11-24T09:07:16.085Z,86.63
2022-11-24T09:08:16.049Z,86.73
2022-11-24T09:09:16.028Z,86.79
2022-11-24T09:10:16.033Z,86.52
2022-11-24T09:12:27.462Z,86.69
2022-11-24T09:13:27.452Z,86.63
2022-11-24T09:14:25.791Z,86.69
2022-11-24T09:15:25.783Z,86.28
2022-11-24T09:16:25.899Z,86.22
2022-11-24T09:17:25.754Z,86.63
2022-11-24T09:18:30.099Z,86.83
2022-11-24T09:19:25.722Z,86.63
2022-11-24T09:20:25.706Z,86.69
2022-11-24T09:21:25.717Z,86.48
2022-11-24T09:22:25.683Z,86.32
2022-11-24T09:23:25.678Z,86.32
2022-11-24T09:24:25.654Z,86.32
2022-11-24T09:25:25.645Z,86.52
2022-11-24T09:26:25.643Z,86.32
2022-11-24T09:27:25.614Z,86.52
2022-11-24T09:28:25.605Z,86.42
2022-11-24T09:29:25.595Z,86.42
2022-11-24T09:30:25.575Z,86.63
2022-11-24T09:31:25.699Z,86.52
2022-11-24T09:32:25.545Z,86.52
2022-11-24T09:33:25.543Z,86.22
2022-11-24T09:34:25.516Z,86.07
2022-11-24T09:35:25.515Z,85.87
2022-11-24T09:36:25.529Z,85.36
2022-11-24T09:37:29.593Z,85.36
2022-11-24T09:38:26.472Z,85.25
2022-11-24T09:39:25.456Z,85.46
2022-11-24T09:40:25.447Z,85.42
2022-11-24T09:41:25.435Z,85.31
2022-11-24T09:42:25.438Z,85.01
2022-11-24T09:43:25.406Z,85.11
2022-11-24T09:44:25.400Z,85.01
2022-11-24T09:45:49.015Z,84.70
2022-11-24T09:46:26.399Z,84.39
2022-11-24T09:47:25.368Z,84.29
2022-11-24T09:48:25.336Z,84.19
2022-11-24T09:49:25.335Z,84.29
2022-11-24T09:50:25.314Z,84.39
2022-11-24T09:51:25.301Z,84.70
2022-11-24T09:52:25.306Z,85.01
2022-11-24T09:53:25.278Z,85.11
2022-11-24T09:54:25.330Z,84.80
2022-11-24T09:55:25.244Z,84.70
2022-11-24T09:56:25.237Z,85.11
2022-11-24T09:57:25.238Z,84.80
2022-11-24T09:58:25.196Z,84.44
2022-11-24T09:59:25.200Z,84.50
2022-11-24T10:00:25.174Z,84.70
2022-11-24T10:01:25.256Z,84.50
2022-11-24T10:02:25.148Z,84.80
2022-11-24T10:03:25.148Z,84.60
2022-11-24T10:04:25.189Z,84.39
2022-11-24T10:05:25.109Z,84.29
2022-11-24T10:06:25.112Z,84.39
2022-11-24T10:07:25.129Z,83.98
2022-11-24T10:08:25.065Z,84.05
2022-11-24T10:09:25.058Z,83.84
2022-11-24T10:10:25.433Z,84.05
2022-11-24T10:11:25.032Z,83.84
2022-11-24T10:12:25.029Z,84.05
2022-11-24T10:13:25.010Z,84.15
2022-11-24T10:14:24.987Z,83.74
2022-11-24T10:15:24.978Z,84.05
2022-11-24T10:16:25.001Z,83.74
2022-11-24T10:17:24.979Z,83.33
2022-11-24T10:18:24.940Z,83.54
2022-11-24T10:19:34.474Z,84.05
2022-11-24T10:20:25.900Z,84.05
2022-11-24T10:21:24.921Z,83.84
2022-11-24T10:22:24.891Z,83.91
2022-11-24T10:23:24.871Z,84.01
2022-11-24T10:24:24.849Z,83.81
2022-11-24T10:25:24.841Z,83.60
2022-11-24T10:26:24.830Z,83.39
2022-11-24T10:27:24.831Z,83.50
2022-11-24T10:28:24.801Z,82.78
2022-11-24T10:29:24.792Z,82.78
2022-11-24T10:30:24.796Z,82.68
2022-11-24T10:31:24.805Z,82.89
2022-11-24T10:32:24.760Z,83.09
2022-11-24T10:33:30.314Z,82.89
2022-11-24T10:34:25.729Z,83.09
2022-11-24T10:35:24.702Z,83.39
2022-11-24T10:36:24.700Z,82.48
2022-11-24T10:37:24.693Z,82.75
2022-11-24T10:38:24.661Z,82.84
2022-11-24T10:39:24.653Z,82.75
2022-11-24T10:40:55.342Z,82.84
2022-11-24T10:41:25.626Z,82.95
2022-11-24T10:42:24.623Z,82.64
2022-11-24T10:43:24.603Z,82.09
2022-11-24T10:44:24.594Z,82.20
2022-11-24T10:45:24.573Z,81.58
2022-11-24T10:46:24.737Z,81.58
2022-11-24T10:47:24.563Z,81.13
2022-11-24T10:48:24.542Z,80.10
2022-11-24T10:49:24.514Z,77.58
2022-11-24T10:50:24.523Z,75.57
2022-11-24T10:51:24.491Z,73.26
2022-11-24T10:52:24.494Z,73.30
2022-11-24T10:53:24.465Z,73.23
2022-11-24T10:54:24.454Z,74.18
2022-11-24T10:55:24.435Z,74.32
2022-11-24T10:56:24.424Z,73.43
2022-11-24T10:57:24.424Z,72.58
2022-11-24T10:58:24.404Z,71.77
2022-11-24T10:59:24.387Z,71.23
2022-11-24T11:00:24.376Z,71.53
2022-11-24T11:01:24.414Z,72.58
2022-11-24T11:02:24.395Z,73.74
2022-11-24T11:03:24.335Z,73.94
2022-11-24T11:04:24.332Z,74.69
2022-11-24T11:05:24.306Z,75.23
2022-11-24T11:06:24.308Z,76.19
2022-11-24T11:07:24.392Z,76.70
2022-11-24T11:08:24.268Z,76.59
2022-11-24T11:09:24.247Z,77.31
2022-11-24T11:10:24.253Z,77.51
2022-11-24T11:11:24.229Z,77.31
2022-11-24T11:13:25.200Z,77.69
2022-11-24T11:14:24.190Z,78.13
2022-11-24T11:15:24.172Z,78.75
2022-11-24T11:16:24.227Z,79.25
2022-11-24T11:17:24.170Z,79.25
2022-11-24T11:18:24.142Z,79.66
2022-11-24T11:19:47.366Z,79.66
2022-11-24T11:20:25.120Z,79.36
2022-11-24T11:21:24.102Z,79.66
2022-11-24T11:22:24.106Z,79.77
2022-11-24T11:23:24.061Z,79.57
2022-11-24T11:24:24.056Z,79.57
2022-11-24T11:25:24.040Z,79.46
2022-11-24T11:26:24.033Z,79.66
2022-11-24T11:27:24.030Z,79.87
2022-11-24T11:28:24.010Z,79.77
2022-11-24T11:31:24.963Z,79.46
2022-11-24T11:34:30.018Z,79.36
2022-11-24T11:35:24.905Z,79.36
2022-11-24T11:36:23.893Z,79.66
2022-11-24T11:37:23.904Z,79.77
2022-11-24T11:38:23.864Z,79.66
2022-11-24T11:39:23.846Z,79.66
2022-11-24T11:40:23.843Z,79.77
2022-11-24T11:41:23.825Z,79.46
2022-11-24T11:42:53.517Z,79.77
2022-11-24T11:43:24.812Z,79.93
2022-11-24T11:44:23.788Z,79.43
2022-11-24T11:45:23.816Z,78.75
2022-11-24T11:46:23.789Z,79.16
2022-11-24T11:47:23.764Z,79.63
2022-11-24T11:48:23.734Z,79.32
2022-11-24T11:49:23.715Z,78.50
2022-11-24T11:50:23.766Z,78.50
2022-11-24T11:51:24.476Z,78.44
2022-11-24T11:52:23.695Z,78.54
2022-11-24T11:53:23.664Z,78.81
2022-11-24T11:54:23.670Z,78.61
2022-11-24T11:55:23.654Z,78.50
2022-11-24T11:56:23.631Z,78.81
2022-11-24T11:57:23.652Z,78.71
2022-11-24T11:58:23.610Z,78.91
2022-11-24T11:59:23.585Z,77.89
2022-11-24T12:00:23.576Z,78.09
2022-11-24T12:01:23.584Z,78.00
2022-11-24T12:02:23.628Z,78.20
2022-11-24T12:03:23.685Z,78.50
2022-11-24T12:04:23.527Z,78.30
2022-11-24T12:05:23.496Z,78.61
2022-11-24T12:06:23.526Z,78.20
2022-11-24T12:07:23.515Z,78.41
2022-11-24T12:08:23.517Z,78.71
2022-11-24T12:09:23.477Z,78.00
2022-11-24T12:10:23.446Z,78.27
2022-11-24T12:11:23.430Z,78.50
2022-11-24T12:12:23.438Z,78.20
2022-11-24T12:13:23.400Z,78.09
2022-11-24T12:14:23.424Z,78.20
2022-11-24T12:15:23.369Z,78.09
2022-11-24T12:16:23.424Z,78.20
2022-11-24T12:17:23.340Z,78.71
2022-11-24T12:18:55.200Z,78.71
2022-11-24T12:19:24.327Z,78.30
2022-11-24T12:20:23.307Z,77.89
2022-11-24T12:21:26.620Z,78.27
2022-11-24T12:22:23.307Z,78.16
2022-11-24T12:23:23.276Z,77.75
2022-11-24T12:24:23.297Z,77.55
2022-11-24T12:25:23.243Z,77.69
2022-11-24T12:26:23.228Z,77.96
2022-11-24T12:27:23.569Z,78.00
2022-11-24T12:28:23.208Z,77.96
2022-11-24T12:29:23.202Z,78.16
2022-11-24T12:30:23.175Z,78.06
2022-11-24T12:31:23.235Z,78.27
2022-11-24T12:32:23.152Z,77.59
2022-11-24T12:33:23.131Z,77.79
2022-11-24T12:34:23.140Z,77.89
2022-11-24T12:35:23.113Z,78.41
2022-11-24T12:36:23.100Z,78.61
2022-11-24T12:37:23.082Z,78.27
2022-11-24T12:38:23.065Z,78.27
2022-11-24T12:39:23.065Z,78.37
2022-11-24T12:40:23.044Z,78.16
2022-11-24T12:41:41.076Z,77.86
2022-11-24T12:42:24.011Z,77.96
2022-11-24T12:43:23.003Z,78.27
2022-11-24T12:44:23.002Z,77.75
2022-11-24T12:45:22.972Z,77.75
2022-11-24T12:46:22.996Z,77.96
2022-11-24T12:47:22.946Z,77.34
2022-11-24T12:48:22.933Z,77.75
2022-11-24T12:49:22.932Z,77.55
2022-11-24T12:50:22.905Z,77.75
2022-11-24T12:51:22.893Z,78.16
2022-11-24T12:52:22.882Z,77.96
2022-11-24T12:53:22.866Z,78.16
2022-11-24T12:54:22.903Z,78.06
2022-11-24T12:55:22.833Z,78.06
2022-11-24T12:56:22.825Z,77.75
2022-11-24T12:57:22.815Z,77.45
2022-11-24T12:58:22.801Z,77.34